createdAt,value
2023-05-06T00:05:00.674Z,97
2023-05-06T00:10:06.128Z,97
2023-05-06T00:15:12.433Z,97.5
2023-05-06T00:20:18.776Z,98
2023-05-06T00:25:25.088Z,98
2023-05-06T00:30:31.401Z,98
2023-05-06T00:35:37.737Z,98
2023-05-06T00:40:44.057Z,98
2023-05-06T00:45:50.385Z,98
2023-05-06T00:50:56.716Z,98
2023-05-06T00:56:03.036Z,97.5
2023-05-06T01:01:09.357Z,97.5
2023-05-06T01:06:15.691Z,97.5
2023-05-06T01:11:22.000Z,97.5
2023-05-06T01:16:28.331Z,97.5
2023-05-06T01:21:33.763Z,97.5
2023-05-06T01:26:40.092Z,97.5
2023-05-06T01:31:46.416Z,97.5
2023-05-06T01:36:52.745Z,97.5
2023-05-06T01:41:59.072Z,97.5
2023-05-06T01:47:05.404Z,97.5
2023-05-06T01:52:11.710Z,98
2023-05-06T01:57:18.036Z,98
2023-05-06T02:02:24.364Z,98.5
2023-05-06T02:07:30.684Z,98.5
2023-05-06T02:12:37.012Z,99
2023-05-06T02:17:43.357Z,99
2023-05-06T02:22:49.654Z,99
2023-05-06T02:27:55.108Z,99
2023-05-06T02:33:01.434Z,99.5
2023-05-06T02:38:07.760Z,99
2023-05-06T02:43:14.103Z,99.5
2023-05-06T02:48:20.392Z,99.5
2023-05-06T02:53:26.742Z,99.5
2023-05-06T02:58:33.039Z,99.5
2023-05-06T03:03:39.365Z,99.5
2023-05-06T03:08:45.682Z,99.5
2023-05-06T03:13:52.015Z,99.5
2023-05-06T03:18:58.332Z,99.5
2023-05-06T03:24:04.671Z,99.5
2023-05-06T03:29:10.977Z,99.5
2023-05-06T03:34:16.431Z,99.5
2023-05-06T03:39:22.748Z,99.5
2023-05-06T03:44:29.088Z,99.5
2023-05-06T03:49:35.383Z,99.5
2023-05-06T03:54:41.726Z,99.5
2023-05-06T03:59:48.040Z,99.5
2023-05-06T04:04:54.362Z,99.5
2023-05-06T04:10:00.687Z,99.5
2023-05-06T04:15:07.014Z,99.5
2023-05-06T04:20:13.328Z,99.5
2023-05-06T04:25:19.661Z,99.5
2023-05-06T04:30:25.981Z,99.5
2023-05-06T04:35:32.310Z,99.5
2023-05-06T04:40:38.635Z,99.5
2023-05-06T04:45:44.076Z,99.5
2023-05-06T04:50:50.439Z,99.5
2023-05-06T04:55:56.752Z,99
2023-05-06T05:01:03.076Z,98.5
2023-05-06T05:06:09.393Z,98.5
2023-05-06T05:11:15.715Z,98.5
2023-05-06T05:16:22.057Z,98
2023-05-06T05:21:28.372Z,98.5
2023-05-06T05:26:34.686Z,99
2023-05-06T05:31:41.015Z,99
2023-05-06T05:36:47.343Z,99
2023-05-06T05:41:53.650Z,98
2023-05-06T05:46:59.985Z,97.5
2023-05-06T05:52:05.416Z,98
2023-05-06T05:57:11.750Z,97.5
2023-05-06T06:02:18.062Z,97.5
2023-05-06T06:07:24.381Z,97
2023-05-06T06:12:30.700Z,97
2023-05-06T06:17:37.032Z,97.5
2023-05-06T06:22:43.370Z,97
2023-05-06T06:27:49.679Z,96
2023-05-06T06:32:56.014Z,96
2023-05-06T06:38:02.334Z,95
2023-05-06T06:43:08.643Z,95
2023-05-06T06:48:14.972Z,95.5
2023-05-06T06:53:21.316Z,96
2023-05-06T06:58:26.752Z,96.5
2023-05-06T07:03:33.065Z,97
2023-05-06T07:08:39.400Z,97.5
2023-05-06T07:13:45.714Z,97.5
2023-05-06T07:18:52.023Z,96.5
2023-05-06T07:23:58.367Z,96.5
2023-05-06T07:29:04.673Z,96
2023-05-06T07:34:10.999Z,96
2023-05-06T07:39:17.337Z,93.5
2023-05-06T07:44:23.677Z,92
2023-05-06T07:49:29.988Z,92.5
2023-05-06T07:54:36.302Z,93
2023-05-06T07:59:42.618Z,93
2023-05-06T08:04:48.066Z,93
2023-05-06T08:09:54.397Z,94
2023-05-06T08:15:00.717Z,95
2023-05-06T08:20:07.035Z,95
2023-05-06T08:25:13.354Z,95.5
2023-05-06T08:30:19.678Z,96
2023-05-06T08:35:26.008Z,95.5
2023-05-06T08:40:32.313Z,95
2023-05-06T08:45:38.656Z,94.5
2023-05-06T08:50:44.969Z,94.5
2023-05-06T08:55:51.304Z,94.5
2023-05-06T09:00:57.614Z,93
2023-05-06T09:06:03.938Z,93
2023-05-06T09:11:09.377Z,92.5
2023-05-06T09:16:15.688Z,93
2023-05-06T09:26:28.340Z,92.5
2023-05-06T09:31:34.661Z,92.5
2023-05-06T09:36:41.005Z,92.5
2023-05-06T09:41:47.317Z,91.5
2023-05-06T09:46:53.652Z,91
2023-05-06T09:51:59.952Z,91.5
2023-05-06T09:57:06.288Z,91
2023-05-06T10:02:12.609Z,91.5
2023-05-06T10:07:18.934Z,91
2023-05-06T10:12:25.253Z,92
2023-05-06T10:17:30.686Z,92.5
2023-05-06T10:22:37.008Z,93.5
2023-05-06T10:27:43.339Z,94.5
2023-05-06T10:32:49.653Z,94.5
2023-05-06T10:37:55.972Z,94
2023-05-06T10:43:02.342Z,94.5
2023-05-06T10:48:08.624Z,95
2023-05-06T10:53:14.925Z,95
2023-05-06T10:58:21.259Z,94.5
2023-05-06T11:03:27.582Z,93
2023-05-06T11:08:33.900Z,94
2023-05-06T11:13:40.262Z,94
2023-05-06T11:18:46.553Z,94.5
2023-05-06T11:23:52.879Z,94
2023-05-06T11:28:58.326Z,94
2023-05-06T11:34:04.657Z,92.5
2023-05-06T11:39:10.954Z,92.5
2023-05-06T11:44:17.298Z,92.5
2023-05-06T11:49:23.612Z,92
2023-05-06T11:54:29.928Z,92
2023-05-06T11:59:36.230Z,91
2023-05-06T12:04:42.569Z,91
2023-05-06T12:09:48.898Z,91.5
2023-05-06T12:14:55.196Z,92
2023-05-06T12:20:01.527Z,91.5
2023-05-06T12:25:07.861Z,91.5
2023-05-06T12:30:14.186Z,92
2023-05-06T12:35:20.504Z,93.5
2023-05-06T12:40:26.828Z,93
2023-05-06T12:45:33.147Z,92
2023-05-06T12:50:39.472Z,91.5
2023-05-06T12:55:45.785Z,91.5
2023-05-06T13:00:52.108Z,92
2023-05-06T13:05:58.437Z,91
2023-05-06T13:11:04.757Z,91
2023-05-06T13:16:11.071Z,90
2023-05-06T13:21:17.399Z,89.5
2023-05-06T13:26:23.743Z,89.5
2023-05-06T13:31:29.163Z,87
2023-05-06T13:36:35.486Z,85.5
2023-05-06T13:41:41.807Z,83.5
2023-05-06T13:46:48.125Z,81.5
2023-05-06T13:51:54.446Z,82.5
2023-05-06T13:57:00.757Z,83.5
2023-05-06T14:02:07.079Z,85
2023-05-06T14:07:13.416Z,85.5
2023-05-06T14:12:19.725Z,87
2023-05-06T14:17:26.037Z,86.5
2023-05-06T14:22:32.370Z,86.5
2023-05-06T14:27:37.805Z,86.5
2023-05-06T14:32:44.116Z,86
2023-05-06T14:37:50.495Z,86.5
2023-05-06T14:42:56.766Z,86
2023-05-06T14:48:03.134Z,87.5
2023-05-06T14:53:09.459Z,88
2023-05-06T14:58:15.775Z,88
2023-05-06T15:03:22.098Z,88.5
2023-05-06T15:08:28.421Z,89
2023-05-06T15:13:34.731Z,89.5
2023-05-06T15:18:41.109Z,90
2023-05-06T15:23:47.384Z,90.5
2023-05-06T15:28:53.718Z,91
2023-05-06T15:34:00.017Z,91.5
2023-05-06T15:39:06.354Z,92
2023-05-06T15:44:11.793Z,91.5
2023-05-06T15:49:18.105Z,91.5
2023-05-06T15:54:24.431Z,91.5
2023-05-06T15:59:30.761Z,92.5
2023-05-06T16:04:37.086Z,93
2023-05-06T16:09:43.416Z,93.5
2023-05-06T16:14:49.741Z,94.5
2023-05-06T16:19:56.110Z,94.5
2023-05-06T16:25:02.376Z,95
2023-05-06T16:30:08.744Z,96
2023-05-06T16:35:15.029Z,97.5
2023-05-06T16:40:21.352Z,98
2023-05-06T16:45:27.680Z,98
2023-05-06T16:50:33.984Z,98.5
2023-05-06T16:55:39.454Z,98.5
2023-05-06T17:00:45.764Z,99
2023-05-06T17:05:52.092Z,99.5
2023-05-06T17:10:58.435Z,99.5
2023-05-06T17:16:04.746Z,99.5
2023-05-06T17:21:11.060Z,99
2023-05-06T17:26:17.390Z,99
2023-05-06T17:31:23.855Z,97.5
2023-05-06T17:36:30.228Z,98.5
2023-05-06T17:41:36.591Z,98
2023-05-06T17:46:42.818Z,98
2023-05-06T17:51:49.151Z,98
2023-05-06T17:56:55.506Z,98.5
2023-05-06T18:02:00.927Z,98.5
2023-05-06T18:07:07.264Z,98.5
2023-05-06T18:12:13.567Z,98.5
2023-05-06T18:17:19.908Z,98.5
2023-05-06T18:22:26.362Z,98.5
2023-05-06T18:27:32.618Z,99.5
2023-05-06T18:32:38.706Z,99.5
2023-05-06T18:37:45.207Z,99.5
2023-05-06T18:42:51.547Z,99.5
2023-05-06T18:47:57.803Z,99.5
2023-05-06T18:53:04.179Z,99.5
2023-05-06T18:58:10.421Z,99.5
2023-05-06T19:03:16.846Z,99.5
2023-05-06T19:08:22.331Z,99.5
2023-05-06T19:13:28.451Z,99.5
2023-05-06T19:18:35.026Z,99.5
2023-05-06T19:23:41.080Z,99.5
2023-05-06T19:28:47.530Z,99.5
2023-05-06T19:33:53.959Z,99.5
2023-05-06T19:39:00.116Z,99.5
2023-05-06T19:44:06.529Z,99.5
2023-05-06T19:49:12.843Z,99.5
2023-05-06T19:54:19.038Z,99.5
2023-05-06T19:59:25.523Z,99.5
2023-05-06T20:04:31.869Z,99.5
2023-05-06T20:09:37.999Z,99.5
2023-05-06T20:14:44.452Z,99.5
2023-05-06T20:19:49.937Z,99.5
2023-05-06T20:24:56.076Z,99.5
2023-05-06T20:30:02.656Z,99.5
2023-05-06T20:35:08.989Z,99.5
2023-05-06T20:40:15.294Z,99.5
2023-05-06T20:45:21.548Z,99.5
2023-05-06T20:50:27.779Z,99.5
2023-05-06T20:55:34.104Z,99.5
2023-05-06T21:00:40.675Z,99.5
2023-05-06T21:05:46.877Z,99.5
2023-05-06T21:10:53.252Z,99.5
2023-05-06T21:15:59.550Z,99.5
2023-05-06T21:21:05.894Z,99.5
2023-05-06T21:26:12.083Z,99.5
2023-05-06T21:31:17.611Z,99.5
2023-05-06T21:36:24.026Z,99.5
2023-05-06T21:41:30.373Z,99.5
2023-05-06T21:46:36.494Z,99.5
2023-05-06T21:51:43.023Z,99.5
2023-05-06T22:01:55.602Z,99.5
2023-05-06T22:07:01.962Z,99.5
2023-05-06T22:12:08.298Z,99.5
2023-05-06T22:17:14.579Z,99.5
2023-05-06T22:22:20.917Z,99.5
2023-05-06T22:27:27.298Z,99.5
2023-05-06T22:32:33.393Z,99.5
2023-05-06T22:37:39.129Z,99.5
2023-05-06T22:42:45.348Z,99.5
2023-05-06T22:47:51.657Z,99.5
2023-05-06T22:52:58.041Z,99.5
2023-05-06T22:58:04.203Z,99.5
2023-05-06T23:03:10.678Z,99.5
2023-05-06T23:08:17.006Z,99.5
2023-05-06T23:13:23.308Z,99.5
2023-05-06T23:18:29.612Z,99.5
2023-05-06T23:23:35.912Z,99.5
2023-05-06T23:28:42.159Z,99.5
2023-05-06T23:33:48.518Z,99.5
2023-05-06T23:38:54.827Z,99.5
2023-05-06T23:44:00.195Z,99.5
2023-05-06T23:49:06.517Z,99.5
2023-05-06T23:54:12.885Z,99.5
2023-05-06T23:59:19.262Z,99.5
